KNRB

Details ICAO KNRB
Name Mayport Ns
Region United States
Timezone America/New_York (UTC-5.0)
Plans Departing 3
Arriving 2
Stats Elevation 17 ft / 5 m (AMSL)
Location 30.391374° -81.424520°
Runways 1
Magnetic Variation 6.619° W
Sunrise 2017-12-12 12:14:36 UTC / 2017-12-12 07:14:36 Local
Sunset 2017-12-12 22:27:20 UTC / 2017-12-12 17:27:20 Local
Advertisement - Login to hide

Runways

ID Width Length Bearing (true) Bearing (mag) Surface Threshold Offset Overrun Length
05 200 ft / 61 m 8,009 ft / 2,441 m 42.78° 49.40° Asphalt 0 ft / 0 m 200 ft / 61 m
23 200 ft / 61 m 8,009 ft / 2,441 m 222.79° 229.41° Asphalt 0 ft / 0 m 200 ft / 61 m

Map

Weather


0- 5 10 15 20 25 30 35+ Temperature / ° C

Clouds and Precipitation
Forecast for 2017-12-13 06:00 UTC. Updated 41 minutes ago

Ground ~20,000 ft ~40,000 ft Winds

METAR

KNRB 130352Z 30009KT 10SM CLR 11/02 A2998 RMK AO2 SLP151 T01060022

TAF

TAF AMD KNRB 1219/1315 28018G28KT FEW040 QNH2976INS FM130000 31012KT SKC QNH2986INS FM131000 33008KT SKC QNH2998INS T21/1219Z T03/1311Z AMD 1910 FN20021

Frequencies

Ground 126.50 MHz GND
Approach 124.90 MHz JACKSONVILLE APP/DEP
Tower 118.75 MHz TWR
Warning: Do not use this data for real-world aviation or navigation. No guarantee of current accuracy is given.